Ikermit

KL  EN  DA
ASIAQ
Weather Now GREENLAND SURVEY
Updated [WGT/WGST] Temperature [°C] Wind [m/s] Air pressure [hPa] Relative humidity [%] Precipitation [mm]
Present Wind chill Speed Max
18.04 00:00-9,3-23,424,2 ⇘29,999173n/a
17.04 23:00-8,8-22,623,7 ⇘29,399172n/a
17.04 22:00-8,6-22,122,7 ⇘30,499174n/a
17.04 21:00-7,7-20,521,1 ⇘27,399073n/a
17.04 20:00n/an/an/an/an/an/an/a
17.04 19:00-6,4-18,319,6 ⇒24,798970n/a
17.04 18:00-5,8-17,118,0 ⇒22,798971n/a
17.04 17:00-4,5-14,715,4 ⇒19,098966n/a
17.04 16:00-3,5-12,311,8 ⇒14,998864n/a
17.04 15:00-3,8-13,012,9 ⇒15,498865n/a
17.04 14:00-3,7-12,712,4 ⇒14,998769n/a
17.04 13:00-4,4-13,511,8 ⇒14,498777n/a
17.04 12:00-5,2-15,113,4 ⇒16,598785n/a
17.04 11:00-5,7-15,412,4 ⇒15,498695n/a
17.04 10:00-6,0-16,113,4 ⇒17,098695n/a
17.04 09:00-5,6-15,111,8 ⇒15,498696n/a
17.04 08:00-5,3-14,210,3 ⇒13,998596n/a
17.04 07:00-5,3-14,210,3 ⇒11,898597n/a
17.04 06:00-4,4-9,84,1 ⇒5,198498n/a
17.04 05:00-4,5-11,36,2 ⇒9,398398n/a
17.04 04:00-4,9-14,011,3 ⇒14,498197n/a
17.04 03:00-4,8-14,011,8 ⇒15,498097n/a
17.04 02:00-4,4-11,77,2 ⇒8,898098n/a
17.04 01:00-4,5-12,79,3 ⇒11,897998n/a
17.04 00:00-3,5-8,74,1 ⇒6,297998n/a
Position: (64.781944444,-40.30166666)

[Back]